createdAt,value
2018-10-05T00:01:27.296Z,100032.57
2018-10-05T00:03:54.949Z,100035.39
2018-10-05T00:06:22.634Z,100028.52
2018-10-05T00:08:50.299Z,100029.75
2018-10-05T00:11:18.062Z,100025.50
2018-10-05T00:13:45.700Z,100007.91
2018-10-05T00:16:13.347Z,100000.88
2018-10-05T00:18:41.002Z,99991.95
2018-10-05T00:21:08.659Z,99919.63
2018-10-05T00:23:36.327Z,99968.39
2018-10-05T00:26:03.979Z,99958.48
2018-10-05T00:28:31.681Z,99959.42
2018-10-05T00:30:59.326Z,99953.39
2018-10-05T00:33:26.978Z,99940.84
2018-10-05T00:35:54.697Z,99934.48
2018-10-05T00:38:22.337Z,99921.52
2018-10-05T00:40:56.621Z,99915.84
2018-10-05T00:43:24.395Z,99899.84
2018-10-05T00:45:52.043Z,99892.33
2018-10-05T00:48:19.685Z,99883.98
2018-10-05T00:50:47.372Z,99866.02
2018-10-05T00:53:15.084Z,99860.53
2018-10-05T00:55:42.682Z,99851.97
2018-10-05T00:58:10.345Z,99839.73
2018-10-05T01:00:38.001Z,99833.58
2018-10-05T01:03:05.816Z,99826.44
2018-10-05T01:05:33.477Z,99811.09
2018-10-05T01:08:01.119Z,99802.52
2018-10-05T01:10:28.757Z,99792.48
2018-10-05T01:12:56.381Z,99786.87
2018-10-05T01:15:24.089Z,99781.80
2018-10-05T01:17:51.746Z,99738.97
2018-10-05T01:20:19.374Z,99767.13
2018-10-05T01:22:47.062Z,99757.83
2018-10-05T01:25:14.688Z,99757.69
2018-10-05T01:27:42.465Z,99753.20
2018-10-05T01:30:11.765Z,99751.57
2018-10-05T01:32:40.771Z,99732.84
2018-10-05T01:35:08.502Z,99721.66
2018-10-05T01:37:36.313Z,99712.41
2018-10-05T01:40:04.104Z,99706.92
2018-10-05T01:42:31.755Z,99701.25
2018-10-05T01:44:59.458Z,99683.41
2018-10-05T01:47:27.122Z,99681.64
2018-10-05T01:49:55.236Z,99666.27
2018-10-05T01:52:22.944Z,99666.58
2018-10-05T01:54:50.601Z,99645.25
2018-10-05T01:57:18.287Z,99637.36
2018-10-05T01:59:45.970Z,99623.09
2018-10-05T02:02:13.624Z,99618.77
2018-10-05T02:04:41.269Z,99619.56
2018-10-05T02:07:08.913Z,99620.73
2018-10-05T02:09:36.553Z,99603.58
2018-10-05T02:12:04.452Z,99595.94
2018-10-05T02:14:32.190Z,99583.63
2018-10-05T02:17:00.017Z,99574.77
2018-10-05T02:19:27.638Z,99565.00
2018-10-05T02:21:55.386Z,99558.82
2018-10-05T02:24:23.039Z,99553.00
2018-10-05T02:26:50.717Z,99541.86
2018-10-05T02:29:18.353Z,99536.77
2018-10-05T02:31:45.973Z,99525.47
2018-10-05T02:34:13.768Z,99507.51
2018-10-05T02:36:41.549Z,99496.36
2018-10-05T02:39:10.993Z,99497.58
2018-10-05T02:41:38.725Z,99489.52
2018-10-05T02:44:06.436Z,99475.27
2018-10-05T02:46:34.081Z,99466.89
2018-10-05T02:49:02.001Z,99463.17
2018-10-05T02:51:29.740Z,99457.90
2018-10-05T02:53:57.407Z,99449.08
2018-10-05T02:56:25.166Z,99446.34
2018-10-05T02:58:52.788Z,99439.40
2018-10-05T03:01:31.550Z,99429.79
2018-10-05T03:03:59.200Z,99418.16
2018-10-05T03:06:26.817Z,99424.98
2018-10-05T03:08:54.486Z,99403.74
2018-10-05T03:11:22.217Z,99403.97
2018-10-05T03:13:49.850Z,99398.14
2018-10-05T03:16:17.538Z,99376.70
2018-10-05T03:18:45.234Z,99373.52
2018-10-05T03:21:12.947Z,99370.25
2018-10-05T03:23:40.581Z,99364.22
2018-10-05T03:26:08.213Z,99357.14
2018-10-05T03:28:35.833Z,99360.64
2018-10-05T03:31:03.541Z,99352.27
2018-10-05T03:33:31.200Z,99341.84
2018-10-05T03:35:58.824Z,99339.95
2018-10-05T03:38:26.556Z,99335.15
2018-10-05T03:40:54.190Z,99332.69
2018-10-05T03:43:21.853Z,99328.45
2018-10-05T03:45:49.522Z,99334.92
2018-10-05T03:48:17.153Z,99327.20
2018-10-05T03:50:44.792Z,99323.81
2018-10-05T03:53:12.472Z,99314.66
2018-10-05T03:55:40.133Z,99316.54
2018-10-05T03:58:07.775Z,99310.42
2018-10-05T04:00:35.421Z,99309.56
2018-10-05T04:03:03.254Z,99299.49
2018-10-05T04:05:31.121Z,99300.91
2018-10-05T04:07:58.854Z,99302.23
2018-10-05T04:10:26.623Z,99292.72
2018-10-05T04:12:54.335Z,99295.52
2018-10-05T04:15:22.108Z,99289.87
2018-10-05T04:17:49.737Z,99284.67
2018-10-05T04:20:17.407Z,99280.82
2018-10-05T04:22:45.023Z,99273.55
2018-10-05T04:25:12.648Z,99270.63
2018-10-05T04:27:40.272Z,99265.89
2018-10-05T04:30:07.909Z,99256.09
2018-10-05T04:32:35.561Z,99257.88
2018-10-05T04:35:03.193Z,99251.01
2018-10-05T04:37:30.821Z,99249.69
2018-10-05T04:39:58.545Z,99241.18
2018-10-05T04:42:26.177Z,99244.27
2018-10-05T04:44:53.801Z,99231.67
2018-10-05T04:47:21.470Z,99228.75
2018-10-05T04:49:49.183Z,99227.05
2018-10-05T04:52:16.826Z,99223.27
2018-10-05T04:54:44.459Z,99217.71
2018-10-05T04:57:12.154Z,99221.70
2018-10-05T04:59:39.781Z,99218.38
2018-10-05T05:02:07.415Z,99217.52
2018-10-05T05:04:35.080Z,99221.18
2018-10-05T05:07:02.741Z,99229.30
2018-10-05T05:09:30.404Z,99235.13
2018-10-05T05:11:58.129Z,99235.69
2018-10-05T05:14:25.814Z,99235.30
2018-10-05T05:16:53.433Z,99234.55
2018-10-05T05:19:21.100Z,99227.97
2018-10-05T05:21:48.715Z,99224.16
2018-10-05T05:24:16.356Z,99230.38
2018-10-05T05:26:44.028Z,99233.06
2018-10-05T05:29:11.701Z,99235.34
2018-10-05T05:31:39.329Z,99227.52
2018-10-05T05:34:06.995Z,99229.84
2018-10-05T05:36:34.679Z,99228.59
2018-10-05T05:39:02.456Z,99224.29
2018-10-05T05:41:30.084Z,99223.44
2018-10-05T05:43:57.757Z,99220.41
2018-10-05T05:46:25.397Z,99220.41
2018-10-05T05:48:53.081Z,99208.64
2018-10-05T05:51:20.739Z,99214.77
2018-10-05T05:53:48.581Z,99207.89
2018-10-05T05:56:16.310Z,99208.35
2018-10-05T05:58:44.284Z,99216.53
2018-10-05T06:01:12.027Z,99208.28
2018-10-05T06:03:39.633Z,99202.63
2018-10-05T06:06:07.313Z,99204.05
2018-10-05T06:08:35.035Z,99205.82
2018-10-05T06:11:02.691Z,99202.63
2018-10-05T06:13:30.408Z,99211.38
2018-10-05T06:15:58.279Z,99208.45
2018-10-05T06:18:25.921Z,99213.15
2018-10-05T06:20:53.622Z,99215.39
2018-10-05T06:23:22.137Z,99226.40
2018-10-05T06:25:49.762Z,99220.28
2018-10-05T06:28:17.443Z,99232.12
2018-10-05T06:30:45.156Z,99236.98
2018-10-05T06:33:12.852Z,99236.06
2018-10-05T06:35:40.524Z,99258.25
2018-10-05T06:38:08.225Z,99252.44
2018-10-05T06:40:35.888Z,99264.20
2018-10-05T06:43:03.515Z,99261.48
2018-10-05T06:45:31.190Z,99263.09
2018-10-05T06:47:58.849Z,99271.14
2018-10-05T06:50:26.492Z,99271.05
2018-10-05T06:52:54.680Z,99259.53
2018-10-05T06:55:22.444Z,99270.36
2018-10-05T06:57:50.086Z,99280.58
2018-10-05T07:00:17.812Z,99270.91
2018-10-05T07:02:45.649Z,99266.97
2018-10-05T07:05:13.294Z,99263.02
2018-10-05T07:07:40.981Z,99256.97
2018-10-05T07:10:08.785Z,99253.48
2018-10-05T07:12:36.458Z,99262.25
2018-10-05T07:15:04.670Z,99264.98
2018-10-05T07:17:32.324Z,99267.66
2018-10-05T07:20:00.013Z,99267.63
2018-10-05T07:22:27.702Z,99264.12
2018-10-05T07:24:55.327Z,99256.17
2018-10-05T07:27:22.994Z,99262.09
2018-10-05T07:29:50.614Z,99264.48
2018-10-05T07:32:18.373Z,99262.83
2018-10-05T07:34:46.010Z,99278.45
2018-10-05T07:37:13.762Z,99283.25
2018-10-05T07:39:41.320Z,99284.56
2018-10-05T07:42:08.997Z,99290.59
2018-10-05T07:44:36.613Z,99297.73
2018-10-05T07:47:04.233Z,99289.84
2018-10-05T07:49:31.865Z,99293.22
2018-10-05T07:51:59.485Z,99286.53
2018-10-05T07:54:27.145Z,99268.66
2018-10-05T07:56:54.838Z,99284.75
2018-10-05T07:59:22.495Z,99291.27
2018-10-05T08:01:50.152Z,99295.51
2018-10-05T08:04:17.785Z,99302.31
2018-10-05T08:06:45.459Z,99290.35
2018-10-05T08:09:13.079Z,99284.72
2018-10-05T08:11:40.741Z,99293.30
2018-10-05T08:14:08.409Z,99305.45
2018-10-05T08:16:36.041Z,99298.47
2018-10-05T08:19:03.810Z,99300.89
2018-10-05T08:21:31.612Z,99311.18
2018-10-05T08:23:59.234Z,99312.72
2018-10-05T08:26:26.969Z,99307.48
2018-10-05T08:28:54.600Z,99319.92
2018-10-05T08:31:22.237Z,99319.03
2018-10-05T08:33:50.002Z,99326.97
2018-10-05T08:36:17.684Z,99317.00
2018-10-05T08:38:45.360Z,99313.53
2018-10-05T08:41:13.030Z,99309.40
2018-10-05T08:43:41.080Z,99311.00
2018-10-05T08:46:08.829Z,99312.32
2018-10-05T08:48:36.469Z,99328.14
2018-10-05T08:51:04.161Z,99327.31
2018-10-05T08:53:31.829Z,99333.09
2018-10-05T08:55:59.465Z,99329.02
2018-10-05T08:58:27.173Z,99334.88
2018-10-05T09:00:54.811Z,99344.13
2018-10-05T09:03:22.432Z,99345.94
2018-10-05T09:05:50.161Z,99357.70
2018-10-05T09:08:18.064Z,99361.37
2018-10-05T09:10:45.713Z,99348.16
2018-10-05T09:13:13.396Z,99341.56
2018-10-05T09:15:41.085Z,99334.01
2018-10-05T09:18:08.803Z,99348.30
2018-10-05T09:20:36.416Z,99345.21
2018-10-05T09:23:04.256Z,99348.01
2018-10-05T09:25:32.011Z,99345.00
2018-10-05T09:27:59.953Z,99334.08
2018-10-05T09:30:27.816Z,99343.22
2018-10-05T09:32:55.486Z,99332.95
2018-10-05T09:35:23.128Z,99330.12
2018-10-05T09:37:51.386Z,99344.17
2018-10-05T09:40:19.064Z,99346.00
2018-10-05T09:42:46.733Z,99339.16
2018-10-05T09:45:14.419Z,99343.22
2018-10-05T09:47:42.380Z,99347.20
2018-10-05T09:50:10.049Z,99343.36
2018-10-05T09:52:37.869Z,99343.84
2018-10-05T09:55:05.517Z,99345.13
2018-10-05T09:57:33.156Z,99342.95
2018-10-05T10:00:00.915Z,99339.16
2018-10-05T10:02:34.054Z,99340.72
2018-10-05T10:05:01.734Z,99338.98
2018-10-05T10:07:29.517Z,99346.84
2018-10-05T10:09:57.154Z,99363.33
2018-10-05T10:12:24.845Z,99360.39
2018-10-05T10:14:52.507Z,99357.19
2018-10-05T10:17:20.177Z,99348.41
2018-10-05T10:19:47.815Z,99349.48
2018-10-05T10:22:15.482Z,99346.30
2018-10-05T10:24:43.142Z,99349.23
2018-10-05T10:27:11.235Z,99354.98
2018-10-05T10:29:38.857Z,99269.05
2018-10-05T10:32:06.502Z,99363.73
2018-10-05T10:34:34.686Z,99357.91
2018-10-05T10:37:02.335Z,99351.42
2018-10-05T10:39:29.973Z,99362.88
2018-10-05T10:41:57.617Z,99370.70
2018-10-05T10:44:25.315Z,99378.36
2018-10-05T10:46:52.960Z,99379.06
2018-10-05T10:49:20.665Z,99387.69
2018-10-05T10:51:48.298Z,99387.35
2018-10-05T10:54:15.937Z,99380.25
2018-10-05T10:56:43.582Z,99376.37
2018-10-05T10:59:11.310Z,99381.82
2018-10-05T11:01:38.969Z,99384.25
2018-10-05T11:04:06.730Z,99382.44
2018-10-05T11:06:34.383Z,99379.14
2018-10-05T11:09:02.104Z,99386.05
2018-10-05T11:12:48.422Z,99394.66
2018-10-05T11:15:16.101Z,99402.25
2018-10-05T11:17:43.796Z,99390.53
2018-10-05T11:20:11.424Z,99385.58
2018-10-05T11:22:39.083Z,99396.32
2018-10-05T11:25:06.788Z,99401.67
2018-10-05T11:27:34.445Z,99392.09
2018-10-05T11:30:02.150Z,99397.51
2018-10-05T11:32:29.793Z,99400.47
2018-10-05T11:34:57.482Z,99398.94
2018-10-05T11:37:25.107Z,99407.34
2018-10-05T11:39:52.734Z,99415.92
2018-10-05T11:42:20.405Z,99424.18
2018-10-05T11:44:48.053Z,99424.88
2018-10-05T11:47:15.716Z,99423.03
2018-10-05T11:49:43.475Z,99440.34
2018-10-05T11:52:11.092Z,99429.05
2018-10-05T11:54:38.818Z,99438.13
2018-10-05T11:57:06.536Z,99440.26
2018-10-05T11:59:34.263Z,99438.77
2018-10-05T12:02:02.153Z,99445.79
2018-10-05T12:04:29.826Z,99438.41
2018-10-05T12:06:57.454Z,99452.09
2018-10-05T12:09:25.105Z,99450.88
2018-10-05T12:11:52.741Z,99450.27
2018-10-05T12:14:20.478Z,99451.67
2018-10-05T12:16:48.977Z,99465.35
2018-10-05T12:19:23.286Z,99467.66
2018-10-05T12:21:50.932Z,99466.31
2018-10-05T12:24:18.563Z,99472.64
2018-10-05T12:26:46.258Z,99470.22
2018-10-05T12:29:13.898Z,99467.04
2018-10-05T12:31:41.533Z,99463.66
2018-10-05T12:34:09.264Z,99467.17
2018-10-05T12:36:36.896Z,99458.28
2018-10-05T12:39:06.305Z,99469.52
2018-10-05T12:41:33.945Z,99470.34
2018-10-05T12:44:01.606Z,99482.94
2018-10-05T12:46:29.268Z,99483.23
2018-10-05T12:48:56.893Z,99485.70
2018-10-05T12:51:24.573Z,99500.30
2018-10-05T12:53:52.228Z,99494.28
2018-10-05T12:56:19.910Z,99493.75
2018-10-05T12:58:47.561Z,99498.69
2018-10-05T13:01:15.202Z,99494.07
2018-10-05T13:03:42.844Z,99487.77
2018-10-05T13:06:10.501Z,99500.16
2018-10-05T13:08:38.133Z,99502.83
2018-10-05T13:11:06.111Z,99497.58
2018-10-05T13:13:33.748Z,99510.48
2018-10-05T13:16:01.425Z,99521.91
2018-10-05T13:18:29.094Z,99514.73
2018-10-05T13:20:56.738Z,99542.30
2018-10-05T13:23:24.394Z,99538.13
2018-10-05T13:25:52.298Z,99528.22
2018-10-05T13:28:19.945Z,99535.03
2018-10-05T13:30:47.564Z,99534.48
2018-10-05T13:33:15.209Z,99535.20
2018-10-05T13:35:42.901Z,99541.45
2018-10-05T13:38:10.541Z,99536.64
2018-10-05T13:40:38.173Z,99550.32
2018-10-05T13:43:05.970Z,99557.97
2018-10-05T13:45:33.641Z,99565.69
2018-10-05T13:48:01.296Z,99576.91
2018-10-05T13:50:28.983Z,99565.02
2018-10-05T13:52:56.632Z,99561.05
2018-10-05T13:55:24.308Z,99557.35
2018-10-05T13:57:51.981Z,99557.22
2018-10-05T14:00:19.780Z,99559.45
2018-10-05T14:02:47.463Z,99558.67
2018-10-05T14:05:15.124Z,99549.92
2018-10-05T14:07:42.750Z,99555.88
2018-10-05T14:10:10.381Z,99554.52
2018-10-05T14:12:38.045Z,99568.69
2018-10-05T14:15:05.785Z,99570.38
2018-10-05T14:17:33.493Z,99571.38
2018-10-05T14:20:01.186Z,99576.34
2018-10-05T14:22:28.821Z,99569.92
2018-10-05T14:24:56.480Z,99574.23
2018-10-05T14:27:24.112Z,99569.67
2018-10-05T14:29:51.760Z,99573.45
2018-10-05T14:32:19.389Z,99568.88
2018-10-05T14:34:47.072Z,99570.08
2018-10-05T14:37:14.694Z,99567.44
2018-10-05T14:39:42.377Z,99565.62
2018-10-05T14:42:09.996Z,99569.70
2018-10-05T14:44:37.652Z,99566.41
2018-10-05T14:47:05.285Z,99564.72
2018-10-05T14:49:33.032Z,99563.57
2018-10-05T14:52:00.922Z,99560.48
2018-10-05T14:54:28.585Z,99565.70
2018-10-05T14:56:56.226Z,99556.82
2018-10-05T14:59:23.969Z,99569.25
2018-10-05T15:01:51.616Z,99567.53
2018-10-05T15:04:19.344Z,99573.67
2018-10-05T15:06:47.046Z,99579.21
2018-10-05T15:09:14.719Z,99577.62
2018-10-05T15:11:42.376Z,99573.14
2018-10-05T15:14:10.047Z,99576.31
2018-10-05T15:16:37.681Z,99581.58
2018-10-05T15:19:05.370Z,99583.06
2018-10-05T15:21:33.043Z,99589.06
2018-10-05T15:24:00.692Z,99590.48
2018-10-05T15:26:28.377Z,99595.13
2018-10-05T15:28:56.031Z,99601.59
2018-10-05T15:31:23.849Z,99596.55
2018-10-05T15:33:51.484Z,99594.22
2018-10-05T15:36:19.101Z,99604.45
2018-10-05T15:38:46.809Z,99607.80
2018-10-05T15:41:14.653Z,99606.23
2018-10-05T15:43:42.298Z,99601.92
2018-10-05T15:46:10.964Z,99602.84
2018-10-05T15:48:38.655Z,99600.27
2018-10-05T15:51:06.597Z,99602.42
2018-10-05T15:53:34.456Z,99598.02
2018-10-05T15:56:02.544Z,99597.87
2018-10-05T15:58:30.172Z,99600.56
2018-10-05T16:00:57.800Z,99599.61
2018-10-05T16:03:25.461Z,99610.39
2018-10-05T16:05:53.273Z,99609.45
2018-10-05T16:08:20.857Z,99607.83
2018-10-05T16:10:48.505Z,99608.84
2018-10-05T16:13:16.194Z,99599.68
2018-10-05T16:15:44.038Z,99603.67
2018-10-05T16:18:12.584Z,99598.00
2018-10-05T16:20:40.200Z,99597.44
2018-10-05T16:23:07.846Z,99593.89
2018-10-05T16:25:35.556Z,99592.80
2018-10-05T16:28:03.211Z,99598.70
2018-10-05T16:30:31.013Z,99606.38
2018-10-05T16:32:58.705Z,99602.78
2018-10-05T16:35:27.121Z,99600.53
2018-10-05T16:37:54.778Z,99598.58
2018-10-05T16:40:22.993Z,99595.18
2018-10-05T16:42:51.380Z,99596.09
2018-10-05T16:45:19.067Z,99593.47
2018-10-05T16:47:46.721Z,99601.77
2018-10-05T16:50:14.369Z,99604.81
2018-10-05T16:52:42.028Z,99599.95
2018-10-05T16:55:09.650Z,99594.19
2018-10-05T16:57:37.280Z,99597.80
2018-10-05T17:00:05.153Z,99606.00
2018-10-05T17:02:32.809Z,99615.61
2018-10-05T17:05:00.459Z,99617.52
2018-10-05T17:07:28.141Z,99621.69
2018-10-05T17:09:55.769Z,99624.13
2018-10-05T17:12:23.389Z,99628.84
2018-10-05T17:14:51.030Z,99626.25
2018-10-05T17:17:18.838Z,99625.57
2018-10-05T17:19:46.382Z,99628.97
2018-10-05T17:22:14.005Z,99619.18
2018-10-05T17:24:41.619Z,99626.45
2018-10-05T17:27:09.286Z,99625.61
2018-10-05T17:29:36.913Z,99623.75
2018-10-05T17:32:04.610Z,99617.48
2018-10-05T17:34:32.273Z,99618.55
2018-10-05T17:36:59.873Z,99625.14
2018-10-05T17:39:27.509Z,99624.86
2018-10-05T17:41:55.137Z,99627.33
2018-10-05T17:44:22.861Z,99616.14
2018-10-05T17:46:50.499Z,99615.77
2018-10-05T17:49:18.150Z,99627.09
2018-10-05T17:51:45.813Z,99628.63
2018-10-05T17:54:13.429Z,99625.75
2018-10-05T17:56:41.124Z,99623.00
2018-10-05T17:59:08.813Z,99620.34
2018-10-05T18:01:36.487Z,99615.38
2018-10-05T18:04:04.996Z,99616.64
2018-10-05T18:06:32.653Z,99607.71
2018-10-05T18:09:00.360Z,99619.34
2018-10-05T18:11:28.057Z,99612.80
2018-10-05T18:13:55.734Z,99614.14
2018-10-05T18:16:23.356Z,99612.66
2018-10-05T18:18:51.196Z,99612.12
2018-10-05T18:21:18.805Z,99606.70
2018-10-05T18:23:46.801Z,99612.55
2018-10-05T18:26:14.461Z,99616.31
2018-10-05T18:28:42.097Z,99617.47
2018-10-05T18:31:09.742Z,99614.27
2018-10-05T18:33:37.453Z,99611.80
2018-10-05T18:36:05.890Z,99616.52
2018-10-05T18:38:33.604Z,99609.55
2018-10-05T18:41:01.615Z,99610.78
2018-10-05T18:43:29.332Z,99606.63
2018-10-05T18:45:57.020Z,99614.69
2018-10-05T18:48:24.680Z,99611.05
2018-10-05T18:50:52.437Z,99601.70
2018-10-05T18:53:20.121Z,99599.26
2018-10-05T18:55:48.499Z,99602.57
2018-10-05T18:58:16.157Z,99598.41
2018-10-05T19:00:43.798Z,99597.76
2018-10-05T19:03:11.433Z,99593.38
2018-10-05T19:05:39.119Z,99580.55
2018-10-05T19:08:06.769Z,99583.27
2018-10-05T19:10:34.448Z,99585.57
2018-10-05T19:13:02.133Z,99572.73
2018-10-05T19:15:29.759Z,99574.76
2018-10-05T19:17:57.417Z,99564.88
2018-10-05T19:20:25.148Z,99581.52
2018-10-05T19:22:52.848Z,99574.24
2018-10-05T19:25:20.488Z,99575.45
2018-10-05T19:27:48.294Z,99559.72
2018-10-05T19:30:15.919Z,99570.52
2018-10-05T19:32:43.540Z,99572.06
2018-10-05T19:35:11.189Z,99570.41
2018-10-05T19:37:39.292Z,99569.86
2018-10-05T19:40:07.109Z,99571.61
2018-10-05T19:42:35.093Z,99560.52
2018-10-05T19:45:02.761Z,99562.65
2018-10-05T19:47:30.409Z,99558.77
2018-10-05T19:49:58.062Z,99561.06
2018-10-05T19:52:25.769Z,99567.31
2018-10-05T19:54:53.402Z,99562.66
2018-10-05T19:57:21.185Z,99561.77
2018-10-05T19:59:48.878Z,99555.94
2018-10-05T20:02:17.456Z,99553.30
2018-10-05T20:04:45.133Z,99555.75
2018-10-05T20:07:12.777Z,99554.20
2018-10-05T20:09:40.442Z,99552.55
2018-10-05T20:12:08.333Z,99557.06
2018-10-05T20:14:36.061Z,99559.13
2018-10-05T20:17:03.729Z,99554.75
2018-10-05T20:19:31.746Z,99553.85
2018-10-05T20:21:59.440Z,99554.41
2018-10-05T20:24:27.159Z,99556.33
2018-10-05T20:26:55.771Z,99542.61
2018-10-05T20:29:23.432Z,99544.30
2018-10-05T20:31:51.061Z,99530.95
2018-10-05T20:34:18.689Z,99538.62
2018-10-05T20:36:46.553Z,99535.89
2018-10-05T20:39:14.107Z,99540.22
2018-10-05T20:41:41.769Z,99533.23
2018-10-05T20:44:09.407Z,99534.09
2018-10-05T20:46:37.004Z,99534.20
2018-10-05T20:49:04.685Z,99533.48
2018-10-05T20:51:32.418Z,99540.02
2018-10-05T20:54:00.657Z,99535.45
2018-10-05T20:56:28.668Z,99538.19
2018-10-05T20:58:56.280Z,99536.21
2018-10-05T21:01:23.991Z,99534.38
2018-10-05T21:03:51.670Z,99534.72
2018-10-05T21:06:19.317Z,99536.03
2018-10-05T21:08:46.955Z,99534.27
2018-10-05T21:11:14.576Z,99534.95
2018-10-05T21:13:42.265Z,99532.89
2018-10-05T21:16:09.888Z,99526.61
2018-10-05T21:18:37.546Z,99526.69
2018-10-05T21:21:05.269Z,99528.37
2018-10-05T21:23:32.873Z,99526.31
2018-10-05T21:26:00.500Z,99531.47
2018-10-05T21:28:28.154Z,99534.83
2018-10-05T21:30:55.789Z,99537.44
2018-10-05T21:33:23.545Z,99533.66
2018-10-05T21:35:51.113Z,99529.66
2018-10-05T21:38:18.729Z,99533.34
2018-10-05T21:40:46.381Z,99527.91
2018-10-05T21:43:13.985Z,99530.67
2018-10-05T21:45:41.661Z,99532.53
2018-10-05T21:48:09.272Z,99529.47
2018-10-05T21:50:36.948Z,99530.92
2018-10-05T21:53:04.585Z,99526.41
2018-10-05T21:55:32.243Z,99526.27
2018-10-05T21:57:59.863Z,99521.77
2018-10-05T22:00:32.830Z,99524.58
2018-10-05T22:03:00.493Z,99520.97
2018-10-05T22:05:28.130Z,99525.56
2018-10-05T22:07:55.777Z,99529.03
2018-10-05T22:10:23.449Z,99523.88
2018-10-05T22:12:51.084Z,99525.82
2018-10-05T22:15:19.280Z,99518.91
2018-10-05T22:17:46.921Z,99517.32
2018-10-05T22:20:14.544Z,99511.72
2018-10-05T22:22:42.177Z,99514.94
2018-10-05T22:25:09.825Z,99509.91
2018-10-05T22:27:37.640Z,99511.84
2018-10-05T22:30:06.225Z,99503.38
2018-10-05T22:32:33.863Z,99499.63
2018-10-05T22:35:01.560Z,99506.36
2018-10-05T22:37:29.175Z,99506.13
2018-10-05T22:39:56.860Z,99508.95
2018-10-05T22:42:24.505Z,99507.73
2018-10-05T22:44:52.133Z,99509.11
2018-10-05T22:47:19.831Z,99517.08
2018-10-05T22:49:47.470Z,99513.78
2018-10-05T22:52:15.076Z,99506.20
2018-10-05T22:54:42.778Z,99497.25
2018-10-05T22:57:10.453Z,99487.80
2018-10-05T22:59:38.080Z,99491.40
2018-10-05T23:02:05.790Z,99491.13
2018-10-05T23:04:33.435Z,99490.80
2018-10-05T23:07:01.082Z,99486.00
2018-10-05T23:09:28.758Z,99481.38
2018-10-05T23:11:56.360Z,99478.08
2018-10-05T23:14:23.989Z,99482.60
2018-10-05T23:16:51.636Z,99490.17
2018-10-05T23:19:19.238Z,99486.43
2018-10-05T23:21:46.864Z,99487.50
2018-10-05T23:24:14.514Z,99481.56
2018-10-05T23:26:42.148Z,99477.50
2018-10-05T23:29:09.757Z,99479.60
2018-10-05T23:31:37.408Z,99475.05
2018-10-05T23:34:05.049Z,99469.61
2018-10-05T23:36:32.688Z,99474.02
2018-10-05T23:39:00.334Z,99478.34
2018-10-05T23:41:27.954Z,99471.83
2018-10-05T23:43:55.638Z,99463.77
2018-10-05T23:46:23.260Z,99470.56
2018-10-05T23:48:50.893Z,99465.25
2018-10-05T23:51:18.589Z,99467.85
2018-10-05T23:53:46.254Z,99463.03
2018-10-05T23:56:13.877Z,99453.61
2018-10-05T23:58:41.604Z,99465.19
